8

www.moto.it

MX 2018. Cairoli e Covington si aggiudicano le qualifiche del GP della Rep. Ceca

8
...

MX 2018. Cairoli e Covington si aggiudicano le qualifiche del GP della Rep. Ceca

La giornata d’apertura della 13ª tappa iridata si è conclusa all’insegna di Tony Cairoli che ha sfoderato le sue credenziali per assicurarsi la prima vittoria della tappa ceca. Tony (terzo posto nelle cronometrate a neanche mezzo secondo da Jeffrey Herlings) in qualifica dopo essersi caricato a dovere per la partenza in seconda posizione dietro a Max Anstie. Per sette tornate ha seguito l’inglese ufficiale Husqvarna per poi rompere gli indugi e passare al comando, dove è rimasto sino al traguardo dove è arrivato con quasi quattro secondi di margine sul leader MXGP.

L’olandese era rimasto 4° per oltre metà gara, e solo nell’ultima parte di gara ha cominciato a fare la differenza scavalcando prima Anstie e poi Tim Gajser quando però Tonino Nazionale aveva già un margine difficile da azzerare a soli tre giri dalla conclusione.

Lo sloveno della HRC ha mantenuto un meritato 3° posto, precedendo così Anstie, Clement Desalle e il ritrovato Jeremy Van Horebeek che si era già distinto nelle cronometrate dove aveva ottenuto il posto d’onore. Ottima anche la prova di Alex Lupino, che in mattinata ha fermato il cronometro in 7ª posizione e poi ha chiuso la qualifica 8° a dimostrazione del suo ritrovato stato di forma.

Senza storie la MX2, grazie all’ennesima prova di forza del sabato di Thomas Covington che è partito al comando e ha preso subito il largo imponendosi sull’emergente belga Jago Geerts e Thomas Olsen.

Brutte partenze hanno invece condizionato la prestazione dei due mattatori del campionato: Pauls Jonass (miglior crono) è partito oltre la 20ª posizione, ha rimontato sino alla 12ª ma poi ha fatto un errore e si è ritrovato ancora nelle retrovie da dove è rinvenuto sino al 16° posto, Jorge Prado invece è scattato 17° ed ha tagliato il traguardo 10°.

Assente Samuele Bernardini per aver interrotto il suo rapporto con la TM, il miglior risultato azzurro è stato quello di Michele Cervellin che ha chiuso 12° dopo aver guadagnato un paio di posizioni.

CLASSIFICHE

MXGP - Qualifying Race - Classification

Pos Nr Rider Nat. Fed. Bike Time laps Diff. First Diff. Prev. Bestlaptime in lap Speed
1 222 Cairoli, Antonio ITA FMI KTM 25:21.539 14 0:00.000 0:00.000 1:44.991 11 54.3
2 84 Herlings, Jeffrey NED KNMV KTM 25:25.449 14 0:03.910 0:03.910 1:45.545 7 54
3 243 Gajser, Tim SLO AMZS Honda 25:28.510 14 0:06.971 0:03.061 1:45.579 10 54
4 99 Anstie, Max GBR ACU Husqvarna 25:33.550 14 0:12.011 0:05.040 1:46.097 4 53.8
5 25 Desalle, Clement BEL FMB Kawasaki 25:37.050 14 0:15.511 0:03.500 1:46.274 9 53.7
6 89 Van Horebeek, Jeremy BEL FMB Yamaha 25:43.016 14 0:21.477 0:05.966 1:46.888 9 53.4
7 100 Searle, Tommy GBR ACU Kawasaki 25:50.236 14 0:28.697 0:07.220 1:47.246 8 53.2
8 77 Lupino, Alessandro ITA FMI Kawasaki 25:51.135 14 0:29.596 0:00.899 1:47.218 8 53.2
9 461 Febvre, Romain FRA FFM Yamaha 26:09.908 14 0:48.369 0:18.773 1:47.523 5 53.1
10 22 Strijbos, Kevin BEL FMB KTM 26:11.181 14 0:49.642 0:01.273 1:49.078 10 52.3
11 21 Paulin, Gautier FRA MCM Husqvarna 26:14.091 14 0:52.552 0:02.910 1:49.060 13 52.3
12 259 Coldenhoff, Glenn NED KNMV KTM 26:17.230 14 0:55.691 0:03.139 1:47.895 7 52.9
13 24 Simpson, Shaun GBR ACU Yamaha 26:18.852 14 0:57.313 0:01.622 1:49.244 6 52.2
14 92 Guillod, Valentin SUI FMS KTM 26:20.312 14 0:58.773 0:01.460 1:48.900 6 52.4
15 777 Bobryshev, Evgeny RUS MFR Suzuki 26:22.353 14 1:00.814 0:02.041 1:49.481 3 52.1
16 55 Irwin, Graeme GBR MCUI KTM 26:29.134 14 1:07.595 0:06.781 1:49.935 7 51.9
17 42 Waters, Todd AUS MA Honda 26:36.956 14 1:15.417 0:07.822 1:49.692 7 52
18 7 Leok, Tanel EST EMF Husqvarna 26:40.151 14 1:18.612 0:03.195 1:49.679 7 52
19 911 Tixier, Jordi FRA FFM KTM 26:41.419 14 1:19.880 0:01.268 1:49.048 8 52.3
20 831 Wysocki, Tomasz POL PZM KTM 26:42.069 14 1:20.530 0:00.650 1:50.767 7 51.5

MX2 - Qualifying Race - Classification

Pos Nr Rider Nat. Fed. Bike Time laps Diff. First Diff. Prev. Bestlaptime in lap Speed
1 64 Covington, Thomas USA MUL Husqvarna 24:27.968 13 0:00.000 0:00.000 1:49.179 4 52.2
2 193 Geerts, Jago BEL FMB Yamaha 24:39.682 13 0:11.714 0:11.714 1:50.242 5 51.7
3 19 Olsen, Thomas Kjer DEN DMU Husqvarna 24:43.902 13 0:15.934 0:04.220 1:50.441 9 51.6
4 919 Watson, Ben GBR ACU Yamaha 24:44.833 13 0:16.865 0:00.931 1:50.145 9 51.8
5 811 Sterry, Adam GBR ACU Kawasaki 24:51.074 13 0:23.106 0:06.241 1:50.761 6 51.5
6 118 Rubini, Stephen FRA FFM KTM 24:53.785 13 0:25.817 0:02.711 1:51.282 6 51.3
7 29 Jacobi, Henry GER DMSB Husqvarna 24:57.285 13 0:29.317 0:03.500 1:51.146 4 51.3
8 56 Weltin, Marshal USA AMA Honda 25:10.347 13 0:42.379 0:13.062 1:52.554 5 50.7
9 96 Lawrence, Hunter AUS MA Honda 25:13.869 13 0:45.901 0:03.522 1:51.957 7 50.9
10 61 Prado, Jorge ESP RFME KTM 25:17.570 13 0:49.602 0:03.701 1:51.837 13 51
11 102 Sikyna, Richard SVK SMF KTM 25:18.842 13 0:50.874 0:01.272 1:53.756 3 50.1
12 747 Cervellin, Michele ITA FMI Yamaha 25:19.794 13 0:51.826 0:00.952 1:52.710 8 50.6
13 98 Vaessen, Bas NED KNMV Honda 25:21.812 13 0:53.844 0:02.018 1:52.763 3 50.6
14 172 Van doninck, Brent BEL FMB Husqvarna 25:22.733 13 0:54.765 0:00.921 1:52.521 7 50.7
15 891 Pessoa, Gustavo BRA CBM Kawasaki 25:24.424 13 0:56.456 0:01.691 1:52.423 9 50.7
16 1 Jonass, Pauls LAT LAMSF KTM 25:24.831 13 0:56.863 0:00.407 1:51.101 12 51.3
17 34 De Waal, Micha-Boy NED KNMV Honda 25:32.983 13 1:05.015 0:08.152 1:53.149 9 50.4
18 127 Rodriguez, Anthony VEN FMV Yamaha 25:35.624 13 1:07.656 0:02.641 1:51.372 7 51.2
19 959 Renaux, Maxime FRA FFM Yamaha 25:36.947 13 1:08.979 0:01.323 1:52.016 12 50.9
20 109 Edelbacher, Roland AUT AMF KTM 25:38.566 13 1:10.598 0:01.619 1:52.834 12 50.6